Time,TemperatureF,DewpointF,PressureIn,WindDirection,WindDirectionDegrees,WindSpeedMPH,WindSpeedGustMPH,Humidity,HourlyPrecipIn,Conditions,Clouds,dailyrainin,SoftwareType,DateUTC
2013-05-11 00:03:00,66.0,59.0,29.90,WNW,290,1.0,9.0,78,0.00,,,0.01,,2013-05-11 04:03:00,
2013-05-11 00:12:00,64.0,60.0,29.90,WNW,303,0.0,5.0,86,0.01,,,0.02,,2013-05-11 04:12:00,
2013-05-11 00:23:00,64.0,60.0,29.90,WNW,303,0.0,5.0,86,0.01,,,0.02,,2013-05-11 04:23:00,
2013-05-11 00:33:00,63.0,59.0,29.90,NNW,344,1.0,6.0,88,0.01,,,0.02,,2013-05-11 04:33:00,
2013-05-11 00:43:00,62.0,59.0,29.90,NNW,338,0.0,1.0,91,0.07,,,0.08,,2013-05-11 04:43:00,
2013-05-11 00:52:00,62.0,59.0,29.90,NNW,338,0.0,1.0,91,0.07,,,0.08,,2013-05-11 04:52:00,
2013-05-11 01:02:00,62.0,59.0,29.90,NNW,338,0.0,3.0,91,0.09,,,0.10,,2013-05-11 05:02:00,
2013-05-11 01:12:00,61.0,59.0,29.88,NNW,338,0.0,2.0,92,0.13,,,0.14,,2013-05-11 05:12:00,
2013-05-11 01:22:00,61.0,59.0,29.88,NNW,338,0.0,2.0,92,0.13,,,0.14,,2013-05-11 05:22:00,
2013-05-11 01:32:00,61.0,59.0,29.88,NNW,338,0.0,0.0,93,0.14,,,0.17,,2013-05-11 05:32:00,
2013-05-11 01:42:00,61.0,59.0,29.86,NNW,338,0.0,1.0,94,0.11,,,0.19,,2013-05-11 05:42:00,
2013-05-11 01:52:00,61.0,59.0,29.86,NNW,338,0.0,1.0,94,0.11,,,0.19,,2013-05-11 05:52:00,
2013-05-11 02:02:00,61.0,59.0,29.86,NNW,338,0.0,1.0,94,0.09,,,0.20,,2013-05-11 06:02:00,
2013-05-11 02:12:00,61.0,59.0,29.86,NNW,338,0.0,1.0,94,0.09,,,0.20,,2013-05-11 06:12:00,
2013-05-11 02:21:00,61.0,59.0,29.85,NNW,338,0.0,1.0,94,0.08,,,0.22,,2013-05-11 06:21:00,
2013-05-11 02:32:00,61.0,59.0,29.83,NNW,338,0.0,1.0,94,0.07,,,0.24,,2013-05-11 06:32:00,
2013-05-11 02:42:00,61.0,60.0,29.83,NNW,338,0.0,2.0,95,0.06,,,0.25,,2013-05-11 06:42:00,
2013-05-11 02:52:00,61.0,60.0,29.83,NNW,338,0.0,2.0,95,0.06,,,0.25,,2013-05-11 06:52:00,
2013-05-11 03:02:00,60.0,59.0,29.83,West,270,0.0,5.0,95,0.08,,,0.28,,2013-05-11 07:02:00,
2013-05-11 03:12:00,60.0,59.0,29.80,WSW,254,0.0,1.0,95,0.06,,,0.28,,2013-05-11 07:12:00,
2013-05-11 03:21:00,60.0,59.0,29.80,WSW,254,0.0,1.0,95,0.06,,,0.28,,2013-05-11 07:21:00,
2013-05-11 03:32:00,60.0,59.0,29.80,WSW,253,0.0,1.0,95,0.05,,,0.29,,2013-05-11 07:32:00,
2013-05-11 03:42:00,60.0,59.0,29.80,WSW,245,0.0,4.0,95,0.05,,,0.29,,2013-05-11 07:42:00,
2013-05-11 03:52:00,60.0,59.0,29.80,WSW,245,0.0,4.0,95,0.05,,,0.29,,2013-05-11 07:52:00,
2013-05-11 04:01:00,60.0,59.0,29.82,SSW,192,1.0,7.0,95,0.01,,,0.29,,2013-05-11 08:01:00,
2013-05-11 04:12:00,60.0,59.0,29.82,SSW,192,1.0,7.0,95,0.01,,,0.29,,2013-05-11 08:12:00,
2013-05-11 04:21:00,60.0,59.0,29.82,SW,218,5.0,10.0,95,0.01,,,0.29,,2013-05-11 08:21:00,
2013-05-11 04:32:00,60.0,59.0,29.82,WSW,257,5.0,12.0,95,0.00,,,0.29,,2013-05-11 08:32:00,
2013-05-11 04:42:00,60.0,59.0,29.80,SSW,198,0.0,9.0,95,0.00,,,0.29,,2013-05-11 08:42:00,
2013-05-11 04:52:00,60.0,59.0,29.80,SSW,198,0.0,9.0,95,0.00,,,0.29,,2013-05-11 08:52:00,
2013-05-11 05:01:00,60.0,59.0,29.80,South,181,4.0,8.0,95,0.01,,,0.30,,2013-05-11 09:01:00,
2013-05-11 05:11:00,60.0,59.0,29.80,WSW,239,2.0,11.0,95,0.01,,,0.29,,2013-05-11 09:11:00,
2013-05-11 05:21:00,60.0,59.0,29.80,WSW,239,2.0,11.0,95,0.01,,,0.29,,2013-05-11 09:21:00,
2013-05-11 05:32:00,60.0,59.0,29.80,SW,235,3.0,5.0,95,0.01,,,0.29,,2013-05-11 09:32:00,
2013-05-11 05:42:00,60.0,59.0,29.79,West,279,0.0,7.0,95,0.01,,,0.29,,2013-05-11 09:42:00,
2013-05-11 05:52:00,60.0,59.0,29.79,West,279,0.0,7.0,95,0.01,,,0.29,,2013-05-11 09:52:00,
2013-05-11 06:03:00,60.0,59.0,29.79,SSW,202,1.0,5.0,95,0.01,,,0.29,,2013-05-11 10:03:00,
2013-05-11 06:12:00,60.0,59.0,29.79,WSW,248,1.0,6.0,95,0.00,,,0.29,,2013-05-11 10:12:00,
2013-05-11 06:22:00,60.0,59.0,29.79,WSW,248,1.0,6.0,95,0.00,,,0.29,,2013-05-11 10:22:00,
2013-05-11 06:33:00,60.0,59.0,29.78,West,273,0.0,6.0,95,0.00,,,0.29,,2013-05-11 10:33:00,
2013-05-11 06:42:00,60.0,59.0,29.78,SW,234,1.0,6.0,95,0.00,,,0.29,,2013-05-11 10:42:00,
2013-05-11 06:52:00,60.0,59.0,29.78,SW,234,1.0,6.0,95,0.00,,,0.29,,2013-05-11 10:52:00,
2013-05-11 07:02:00,60.0,59.0,29.79,WSW,257,3.0,10.0,95,0.00,,,0.29,,2013-05-11 11:02:00,
2013-05-11 07:12:00,61.0,60.0,29.77,WSW,250,0.0,10.0,95,0.00,,,0.29,,2013-05-11 11:12:00,
2013-05-11 07:22:00,61.0,60.0,29.77,WSW,250,0.0,10.0,95,0.00,,,0.29,,2013-05-11 11:22:00,
2013-05-11 07:32:00,61.0,60.0,29.78,SSW,204,2.0,7.0,95,0.00,,,0.29,,2013-05-11 11:32:00,
2013-05-11 07:42:00,61.0,60.0,29.78,West,267,1.0,9.0,95,0.00,,,0.29,,2013-05-11 11:42:00,
2013-05-11 07:52:00,61.0,60.0,29.78,West,267,1.0,9.0,95,0.00,,,0.29,,2013-05-11 11:52:00,
2013-05-11 08:01:00,61.0,60.0,29.79,West,271,1.0,6.0,95,0.00,,,0.29,,2013-05-11 12:01:00,
2013-05-11 08:11:00,62.0,60.0,29.80,WNW,289,2.0,12.0,94,0.00,,,0.29,,2013-05-11 12:11:00,
2013-05-11 08:22:00,62.0,60.0,29.80,WNW,289,2.0,12.0,94,0.00,,,0.29,,2013-05-11 12:22:00,
2013-05-11 08:32:00,62.0,60.0,29.79,West,270,5.0,9.0,94,0.00,,,0.29,,2013-05-11 12:32:00,
2013-05-11 08:42:00,62.0,60.0,29.79,West,273,1.0,9.0,94,0.00,,,0.29,,2013-05-11 12:42:00,
2013-05-11 08:52:00,62.0,60.0,29.79,West,273,1.0,9.0,94,0.00,,,0.29,,2013-05-11 12:52:00,
2013-05-11 09:02:00,62.0,60.0,29.79,West,278,1.0,7.0,93,0.00,,,0.29,,2013-05-11 13:02:00,
2013-05-11 09:11:00,62.0,60.0,29.79,West,278,1.0,7.0,93,0.00,,,0.29,,2013-05-11 13:11:00,
2013-05-11 09:21:00,63.0,61.0,29.79,West,265,0.0,7.0,94,0.00,,,0.29,,2013-05-11 13:21:00,
2013-05-11 09:32:00,64.0,61.0,29.77,West,280,2.0,11.0,91,0.00,,,0.29,,2013-05-11 13:32:00,
2013-05-11 09:42:00,64.0,61.0,29.77,WNW,298,5.0,10.0,89,0.00,,,0.29,,2013-05-11 13:42:00,
2013-05-11 09:52:00,64.0,61.0,29.77,WNW,298,5.0,10.0,89,0.00,,,0.29,,2013-05-11 13:52:00,
2013-05-11 10:02:00,64.0,61.0,29.77,West,279,5.0,13.0,89,0.00,,,0.29,,2013-05-11 14:02:00,
2013-05-11 10:11:00,65.0,62.0,29.77,SW,227,0.0,10.0,89,0.00,,,0.29,,2013-05-11 14:11:00,
2013-05-11 10:21:00,65.0,62.0,29.77,SW,227,0.0,10.0,89,0.00,,,0.29,,2013-05-11 14:21:00,
2013-05-11 10:32:00,65.0,62.0,29.77,SW,234,2.0,6.0,89,0.00,,,0.29,,2013-05-11 14:32:00,
2013-05-11 10:42:00,64.0,61.0,29.77,SW,220,4.0,7.0,90,0.00,,,0.29,,2013-05-11 14:42:00,
2013-05-11 10:52:00,64.0,61.0,29.77,SW,220,4.0,7.0,90,0.00,,,0.29,,2013-05-11 14:52:00,
2013-05-11 11:01:00,64.0,61.0,29.77,WNW,286,3.0,7.0,90,0.00,,,0.29,,2013-05-11 15:01:00,
2013-05-11 11:11:00,65.0,62.0,29.76,SW,235,1.0,9.0,90,0.00,,,0.29,,2013-05-11 15:11:00,
2013-05-11 11:21:00,65.0,62.0,29.76,SW,235,1.0,9.0,90,0.00,,,0.29,,2013-05-11 15:21:00,
2013-05-11 11:32:00,65.0,61.0,29.76,WSW,254,3.0,8.0,88,0.00,,,0.29,,2013-05-11 15:32:00,
2013-05-11 11:43:00,66.0,62.0,29.76,WNW,284,4.0,11.0,87,0.00,,,0.29,,2013-05-11 15:43:00,
2013-05-11 11:53:00,66.0,62.0,29.76,WNW,284,4.0,11.0,87,0.00,,,0.29,,2013-05-11 15:53:00,
2013-05-11 12:03:00,66.0,62.0,29.77,SW,229,2.0,10.0,87,0.00,,,0.29,,2013-05-11 16:03:00,
2013-05-11 12:12:00,66.0,62.0,29.76,West,272,4.0,10.0,87,0.00,,,0.29,,2013-05-11 16:12:00,
2013-05-11 12:23:00,66.0,62.0,29.76,West,272,4.0,10.0,87,0.00,,,0.29,,2013-05-11 16:23:00,
2013-05-11 12:33:00,66.0,62.0,29.75,WSW,258,6.0,13.0,87,0.00,,,0.29,,2013-05-11 16:33:00,
2013-05-11 12:42:00,66.0,62.0,29.75,SW,235,1.0,14.0,87,0.00,,,0.29,,2013-05-11 16:42:00,
2013-05-11 12:53:00,66.0,62.0,29.75,SW,235,1.0,14.0,87,0.00,,,0.29,,2013-05-11 16:53:00,
2013-05-11 13:02:00,66.0,62.0,29.75,SW,223,3.0,11.0,86,0.00,,,0.29,,2013-05-11 17:02:00,
2013-05-11 13:12:00,68.0,63.0,29.74,SSE,157,0.0,12.0,83,0.00,,,0.29,,2013-05-11 17:12:00,
2013-05-11 13:22:00,68.0,63.0,29.74,SSE,157,0.0,12.0,83,0.00,,,0.29,,2013-05-11 17:22:00,
2013-05-11 13:32:00,69.0,63.0,29.74,WNW,284,5.0,12.0,80,0.00,,,0.29,,2013-05-11 17:32:00,
2013-05-11 13:42:00,69.0,61.0,29.72,West,280,1.0,13.0,77,0.00,,,0.29,,2013-05-11 17:42:00,
2013-05-11 13:52:00,69.0,61.0,29.72,West,280,1.0,13.0,77,0.00,,,0.29,,2013-05-11 17:52:00,
2013-05-11 14:01:00,69.0,63.0,29.72,WSW,240,3.0,10.0,81,0.00,,,0.29,,2013-05-11 18:01:00,
2013-05-11 14:12:00,68.0,63.0,29.72,SW,225,0.0,6.0,84,0.01,,,0.30,,2013-05-11 18:12:00,
2013-05-11 14:21:00,68.0,63.0,29.72,SW,225,0.0,6.0,84,0.01,,,0.30,,2013-05-11 18:21:00,
2013-05-11 14:32:00,66.0,63.0,29.72,WSW,249,0.0,7.0,89,0.04,,,0.33,,2013-05-11 18:32:00,
2013-05-11 14:42:00,65.0,62.0,29.70,SW,224,0.0,4.0,91,0.08,,,0.37,,2013-05-11 18:42:00,
2013-05-11 14:52:00,65.0,62.0,29.70,SW,224,0.0,4.0,91,0.08,,,0.37,,2013-05-11 18:52:00,
2013-05-11 15:02:00,65.0,63.0,29.71,SW,222,0.0,1.0,92,0.09,,,0.38,,2013-05-11 19:02:00,
2013-05-11 15:11:00,64.0,62.0,29.72,WSW,247,1.0,13.0,92,0.27,,,0.57,,2013-05-11 19:11:00,
2013-05-11 15:21:00,64.0,62.0,29.72,WSW,247,1.0,13.0,92,0.27,,,0.57,,2013-05-11 19:21:00,
2013-05-11 15:32:00,63.0,61.0,29.71,WNW,299,0.0,5.0,93,0.27,,,0.60,,2013-05-11 19:32:00,
2013-05-11 15:42:00,63.0,61.0,29.70,WNW,299,0.0,2.0,94,0.27,,,0.64,,2013-05-11 19:42:00,
2013-05-11 15:53:00,63.0,61.0,29.70,WNW,299,0.0,2.0,94,0.27,,,0.64,,2013-05-11 19:53:00,
2013-05-11 16:02:00,63.0,61.0,29.70,WSW,240,2.0,4.0,94,0.26,,,0.64,,2013-05-11 20:02:00,
2013-05-11 16:12:00,64.0,62.0,29.71,WSW,251,2.0,5.0,94,0.07,,,0.64,,2013-05-11 20:12:00,
2013-05-11 16:22:00,64.0,62.0,29.71,WSW,251,2.0,5.0,94,0.07,,,0.64,,2013-05-11 20:22:00,
2013-05-11 16:32:00,64.0,62.0,29.71,WSW,244,0.0,7.0,92,0.04,,,0.64,,2013-05-11 20:32:00,
2013-05-11 16:42:00,65.0,63.0,29.71,West,273,1.0,4.0,92,0.00,,,0.64,,2013-05-11 20:42:00,
2013-05-11 16:52:00,65.0,63.0,29.71,West,273,1.0,4.0,92,0.00,,,0.64,,2013-05-11 20:52:00,
2013-05-11 17:02:00,67.0,62.0,29.70,WNW,292,1.0,5.0,85,0.00,,,0.64,,2013-05-11 21:02:00,
2013-05-11 17:11:00,68.0,62.0,29.71,WSW,247,3.0,7.0,82,0.00,,,0.64,,2013-05-11 21:11:00,
2013-05-11 17:22:00,68.0,62.0,29.71,WSW,247,3.0,7.0,82,0.00,,,0.64,,2013-05-11 21:22:00,
2013-05-11 17:33:00,68.0,61.0,29.71,West,277,2.0,8.0,79,0.00,,,0.64,,2013-05-11 21:33:00,
2013-05-11 17:43:00,68.0,61.0,29.71,West,277,2.0,8.0,79,0.00,,,0.64,,2013-05-11 21:43:00,
2013-05-11 17:52:00,68.0,61.0,29.71,WNW,284,1.0,8.0,79,0.00,,,0.64,,2013-05-11 21:52:00,
2013-05-11 18:02:00,69.0,61.0,29.70,West,273,2.0,9.0,77,0.00,,,0.64,,2013-05-11 22:02:00,
2013-05-11 18:13:00,68.0,61.0,29.70,WSW,254,0.0,6.0,79,0.00,,,0.64,,2013-05-11 22:13:00,
2013-05-11 18:23:00,68.0,61.0,29.70,WSW,254,0.0,6.0,79,0.00,,,0.64,,2013-05-11 22:23:00,
2013-05-11 18:33:00,67.0,60.0,29.70,West,271,0.0,8.0,78,0.00,,,0.64,,2013-05-11 22:33:00,
2013-05-11 18:42:00,67.0,62.0,29.69,West,271,0.0,1.0,83,0.00,,,0.64,,2013-05-11 22:42:00,
2013-05-11 18:52:00,67.0,62.0,29.69,West,271,0.0,1.0,83,0.00,,,0.64,,2013-05-11 22:52:00,
2013-05-11 19:02:00,66.0,62.0,29.70,West,271,0.0,0.0,86,0.00,,,0.64,,2013-05-11 23:02:00,
2013-05-11 19:12:00,65.0,61.0,29.70,West,271,0.0,1.0,88,0.00,,,0.64,,2013-05-11 23:12:00,
2013-05-11 19:22:00,65.0,61.0,29.70,West,271,0.0,1.0,88,0.00,,,0.64,,2013-05-11 23:22:00,
2013-05-11 19:32:00,65.0,62.0,29.71,West,271,0.0,0.0,89,0.00,,,0.64,,2013-05-11 23:32:00,
2013-05-11 19:42:00,64.0,61.0,29.71,West,271,0.0,0.0,91,0.00,,,0.64,,2013-05-11 23:42:00,
2013-05-11 19:52:00,64.0,61.0,29.71,West,271,0.0,0.0,91,0.00,,,0.64,,2013-05-11 23:52:00,
2013-05-11 20:01:00,64.0,62.0,29.70,West,271,0.0,0.0,92,0.00,,,0.64,,2013-05-12 00:01:00,
2013-05-11 20:12:00,64.0,62.0,29.70,West,271,0.0,0.0,92,0.00,,,0.64,,2013-05-12 00:12:00,
2013-05-11 20:21:00,64.0,62.0,29.70,West,271,0.0,1.0,93,0.01,,,0.65,,2013-05-12 00:21:00,
2013-05-11 20:32:00,63.0,61.0,29.71,West,266,1.0,5.0,94,0.01,,,0.65,,2013-05-12 00:32:00,
2013-05-11 20:42:00,63.0,61.0,29.70,SSW,211,0.0,3.0,94,0.01,,,0.65,,2013-05-12 00:42:00,
2013-05-11 20:52:00,63.0,61.0,29.70,SSW,211,0.0,3.0,94,0.01,,,0.65,,2013-05-12 00:52:00,
2013-05-11 21:01:00,63.0,61.0,29.70,West,264,2.0,4.0,94,0.01,,,0.65,,2013-05-12 01:01:00,
2013-05-11 21:11:00,63.0,62.0,29.70,West,261,0.0,2.0,95,0.00,,,0.65,,2013-05-12 01:11:00,
2013-05-11 21:21:00,63.0,62.0,29.70,West,261,0.0,2.0,95,0.00,,,0.65,,2013-05-12 01:21:00,
2013-05-11 21:32:00,63.0,62.0,29.70,West,261,0.0,3.0,95,0.00,,,0.65,,2013-05-12 01:32:00,
2013-05-11 21:42:00,62.0,61.0,29.71,West,259,0.0,3.0,95,0.00,,,0.65,,2013-05-12 01:42:00,
2013-05-11 21:52:00,62.0,61.0,29.71,West,259,0.0,3.0,95,0.00,,,0.65,,2013-05-12 01:52:00,
2013-05-11 22:01:00,62.0,61.0,29.71,West,259,0.0,1.0,95,0.00,,,0.65,,2013-05-12 02:01:00,
2013-05-11 22:11:00,61.0,60.0,29.71,West,259,0.0,1.0,95,0.01,,,0.66,,2013-05-12 02:11:00,
2013-05-11 22:22:00,61.0,60.0,29.71,West,259,0.0,1.0,95,0.01,,,0.66,,2013-05-12 02:22:00,
2013-05-11 22:32:00,61.0,60.0,29.71,West,259,0.0,1.0,95,0.01,,,0.66,,2013-05-12 02:32:00,
2013-05-11 22:42:00,60.0,59.0,29.70,West,259,0.0,1.0,95,0.01,,,0.66,,2013-05-12 02:42:00,
2013-05-11 22:52:00,60.0,59.0,29.70,West,259,0.0,1.0,95,0.01,,,0.66,,2013-05-12 02:52:00,
2013-05-11 23:01:00,60.0,59.0,29.71,West,259,0.0,0.0,95,0.01,,,0.66,,2013-05-12 03:01:00,
2013-05-11 23:11:00,60.0,59.0,29.71,West,259,0.0,2.0,95,0.00,,,0.66,,2013-05-12 03:11:00,
2013-05-11 23:22:00,60.0,59.0,29.71,West,259,0.0,2.0,95,0.00,,,0.66,,2013-05-12 03:22:00,
2013-05-11 23:33:00,59.0,58.0,29.71,West,259,0.0,3.0,95,0.00,,,0.66,,2013-05-12 03:33:00,
2013-05-11 23:43:00,59.0,58.0,29.70,West,271,0.0,2.0,95,0.00,,,0.66,,2013-05-12 03:43:00,
2013-05-11 23:53:00,59.0,58.0,29.70,West,271,0.0,2.0,95,0.00,,,0.66,,2013-05-12 03:53:00,